sensor_id;sensor_type;location;lat;lon;timestamp;P1;durP1;ratioP1;P2;durP2;ratioP2
76332;SDS011;71254;53.010;6.508;2024-02-23T00:01:49;3.85;;;0.75;;
76332;SDS011;71254;53.010;6.508;2024-02-23T00:04:16;1.95;;;0.50;;
76332;SDS011;71254;53.010;6.508;2024-02-23T00:06:43;4.43;;;0.82;;
76332;SDS011;71254;53.010;6.508;2024-02-23T00:09:09;4.55;;;0.73;;
76332;SDS011;71254;53.010;6.508;2024-02-23T00:11:35;2.97;;;0.80;;
76332;SDS011;71254;53.010;6.508;2024-02-23T00:14:10;4.22;;;0.98;;
76332;SDS011;71254;53.010;6.508;2024-02-23T00:16:39;3.58;;;0.93;;
76332;SDS011;71254;53.010;6.508;2024-02-23T00:19:07;3.15;;;1.13;;
76332;SDS011;71254;53.010;6.508;2024-02-23T00:21:33;3.58;;;0.88;;
76332;SDS011;71254;53.010;6.508;2024-02-23T00:23:59;4.65;;;1.25;;
76332;SDS011;71254;53.010;6.508;2024-02-23T00:26:27;1.73;;;0.77;;
76332;SDS011;71254;53.010;6.508;2024-02-23T00:28:57;1.13;;;0.40;;
76332;SDS011;71254;53.010;6.508;2024-02-23T00:31:23;2.22;;;0.40;;
76332;SDS011;71254;53.010;6.508;2024-02-23T00:33:48;2.05;;;0.50;;
76332;SDS011;71254;53.010;6.508;2024-02-23T00:36:17;0.77;;;0.30;;
76332;SDS011;71254;53.010;6.508;2024-02-23T00:38:43;0.70;;;0.55;;
76332;SDS011;71254;53.010;6.508;2024-02-23T00:41:11;1.75;;;0.50;;
76332;SDS011;71254;53.010;6.508;2024-02-23T00:43:38;2.30;;;0.80;;
76332;SDS011;71254;53.010;6.508;2024-02-23T00:46:04;2.38;;;1.00;;
76332;SDS011;71254;53.010;6.508;2024-02-23T00:48:30;5.75;;;0.90;;
76332;SDS011;71254;53.010;6.508;2024-02-23T00:50:55;3.60;;;1.77;;
76332;SDS011;71254;53.010;6.508;2024-02-23T00:53:21;2.53;;;0.85;;
76332;SDS011;71254;53.010;6.508;2024-02-23T00:55:49;3.90;;;1.20;;
76332;SDS011;71254;53.010;6.508;2024-02-23T00:58:17;2.53;;;1.10;;
76332;SDS011;71254;53.010;6.508;2024-02-23T01:00:43;2.25;;;0.80;;
76332;SDS011;71254;53.010;6.508;2024-02-23T01:03:09;1.38;;;0.50;;
76332;SDS011;71254;53.010;6.508;2024-02-23T01:05:34;0.60;;;0.25;;
76332;SDS011;71254;53.010;6.508;2024-02-23T01:08:00;1.65;;;0.30;;
76332;SDS011;71254;53.010;6.508;2024-02-23T01:10:26;0.82;;;0.20;;
76332;SDS011;71254;53.010;6.508;2024-02-23T01:12:52;0.75;;;0.60;;
76332;SDS011;71254;53.010;6.508;2024-02-23T01:15:18;0.50;;;0.32;;
76332;SDS011;71254;53.010;6.508;2024-02-23T01:17:49;1.83;;;0.60;;
76332;SDS011;71254;53.010;6.508;2024-02-23T01:20:15;1.63;;;0.52;;
76332;SDS011;71254;53.010;6.508;2024-02-23T01:22:43;3.50;;;0.70;;
76332;SDS011;71254;53.010;6.508;2024-02-23T01:25:09;3.28;;;0.90;;
76332;SDS011;71254;53.010;6.508;2024-02-23T01:27:37;3.78;;;1.13;;
76332;SDS011;71254;53.010;6.508;2024-02-23T01:30:04;2.80;;;1.20;;
76332;SDS011;71254;53.010;6.508;2024-02-23T01:32:30;4.20;;;1.10;;
76332;SDS011;71254;53.010;6.508;2024-02-23T01:34:59;2.95;;;1.52;;
76332;SDS011;71254;53.010;6.508;2024-02-23T01:37:24;3.83;;;1.70;;
76332;SDS011;71254;53.010;6.508;2024-02-23T01:39:50;3.92;;;1.65;;
76332;SDS011;71254;53.010;6.508;2024-02-23T01:42:18;5.72;;;1.80;;
76332;SDS011;71254;53.010;6.508;2024-02-23T01:44:43;7.88;;;2.67;;
76332;SDS011;71254;53.010;6.508;2024-02-23T01:47:10;5.50;;;1.98;;
76332;SDS011;71254;53.010;6.508;2024-02-23T01:49:39;5.70;;;2.00;;
76332;SDS011;71254;53.010;6.508;2024-02-23T01:52:04;5.38;;;1.92;;
76332;SDS011;71254;53.010;6.508;2024-02-23T01:54:30;7.15;;;2.20;;
76332;SDS011;71254;53.010;6.508;2024-02-23T01:56:59;5.55;;;2.50;;
76332;SDS011;71254;53.010;6.508;2024-02-23T01:59:29;6.82;;;1.92;;
76332;SDS011;71254;53.010;6.508;2024-02-23T02:02:01;6.32;;;2.33;;
76332;SDS011;71254;53.010;6.508;2024-02-23T02:04:28;7.68;;;2.45;;
76332;SDS011;71254;53.010;6.508;2024-02-23T02:06:53;9.18;;;1.95;;
76332;SDS011;71254;53.010;6.508;2024-02-23T02:09:20;10.13;;;2.60;;
76332;SDS011;71254;53.010;6.508;2024-02-23T02:11:48;9.93;;;2.67;;
76332;SDS011;71254;53.010;6.508;2024-02-23T02:14:17;7.65;;;2.30;;
76332;SDS011;71254;53.010;6.508;2024-02-23T02:16:46;6.28;;;2.33;;
76332;SDS011;71254;53.010;6.508;2024-02-23T02:19:12;6.90;;;2.60;;
76332;SDS011;71254;53.010;6.508;2024-02-23T02:21:41;10.07;;;2.83;;
76332;SDS011;71254;53.010;6.508;2024-02-23T02:24:07;7.88;;;2.25;;
76332;SDS011;71254;53.010;6.508;2024-02-23T02:26:34;8.48;;;2.38;;
76332;SDS011;71254;53.010;6.508;2024-02-23T02:29:07;8.95;;;2.90;;
76332;SDS011;71254;53.010;6.508;2024-02-23T02:31:35;12.10;;;3.20;;
76332;SDS011;71254;53.010;6.508;2024-02-23T02:34:03;7.40;;;2.55;;
76332;SDS011;71254;53.010;6.508;2024-02-23T02:36:31;15.30;;;2.90;;
76332;SDS011;71254;53.010;6.508;2024-02-23T02:38:57;9.35;;;2.50;;
76332;SDS011;71254;53.010;6.508;2024-02-23T02:41:23;8.15;;;2.42;;
76332;SDS011;71254;53.010;6.508;2024-02-23T02:43:52;5.68;;;2.00;;
76332;SDS011;71254;53.010;6.508;2024-02-23T02:46:18;9.05;;;2.15;;
76332;SDS011;71254;53.010;6.508;2024-02-23T02:48:43;8.18;;;2.20;;
76332;SDS011;71254;53.010;6.508;2024-02-23T02:51:09;7.18;;;2.05;;
76332;SDS011;71254;53.010;6.508;2024-02-23T02:53:35;9.23;;;2.03;;
76332;SDS011;71254;53.010;6.508;2024-02-23T02:56:01;9.77;;;2.17;;
76332;SDS011;71254;53.010;6.508;2024-02-23T02:58:30;9.47;;;2.07;;
76332;SDS011;71254;53.010;6.508;2024-02-23T03:00:55;7.10;;;2.08;;
76332;SDS011;71254;53.010;6.508;2024-02-23T03:03:24;6.82;;;2.53;;
76332;SDS011;71254;53.010;6.508;2024-02-23T03:05:52;10.45;;;2.47;;
76332;SDS011;71254;53.010;6.508;2024-02-23T03:08:17;11.02;;;2.10;;
76332;SDS011;71254;53.010;6.508;2024-02-23T03:10:43;9.07;;;2.55;;
76332;SDS011;71254;53.010;6.508;2024-02-23T03:13:08;5.45;;;1.73;;
76332;SDS011;71254;53.010;6.508;2024-02-23T03:15:34;14.10;;;2.13;;
76332;SDS011;71254;53.010;6.508;2024-02-23T03:18:00;6.57;;;1.83;;
76332;SDS011;71254;53.010;6.508;2024-02-23T03:20:26;7.03;;;2.08;;
76332;SDS011;71254;53.010;6.508;2024-02-23T03:22:55;5.30;;;2.45;;
76332;SDS011;71254;53.010;6.508;2024-02-23T03:25:21;7.50;;;2.38;;
76332;SDS011;71254;53.010;6.508;2024-02-23T03:27:49;7.03;;;2.13;;
76332;SDS011;71254;53.010;6.508;2024-02-23T03:30:15;5.57;;;1.77;;
76332;SDS011;71254;53.010;6.508;2024-02-23T03:32:43;10.85;;;2.65;;
76332;SDS011;71254;53.010;6.508;2024-02-23T03:35:12;6.85;;;2.05;;
76332;SDS011;71254;53.010;6.508;2024-02-23T03:37:38;5.53;;;1.60;;
76332;SDS011;71254;53.010;6.508;2024-02-23T03:40:04;9.05;;;1.77;;
76332;SDS011;71254;53.010;6.508;2024-02-23T03:42:31;4.45;;;1.55;;
76332;SDS011;71254;53.010;6.508;2024-02-23T03:44:59;10.73;;;2.10;;
76332;SDS011;71254;53.010;6.508;2024-02-23T03:47:29;10.65;;;2.17;;
76332;SDS011;71254;53.010;6.508;2024-02-23T03:49:54;5.55;;;1.70;;
76332;SDS011;71254;53.010;6.508;2024-02-23T03:52:20;9.35;;;2.20;;
76332;SDS011;71254;53.010;6.508;2024-02-23T03:54:46;5.47;;;1.90;;
76332;SDS011;71254;53.010;6.508;2024-02-23T03:57:11;4.43;;;1.73;;
76332;SDS011;71254;53.010;6.508;2024-02-23T03:59:37;5.82;;;1.60;;
76332;SDS011;71254;53.010;6.508;2024-02-23T04:02:03;9.05;;;1.90;;
76332;SDS011;71254;53.010;6.508;2024-02-23T04:04:29;8.60;;;2.25;;
76332;SDS011;71254;53.010;6.508;2024-02-23T04:06:54;9.20;;;2.20;;
76332;SDS011;71254;53.010;6.508;2024-02-23T04:09:20;8.00;;;2.33;;
76332;SDS011;71254;53.010;6.508;2024-02-23T04:11:54;6.57;;;2.00;;
76332;SDS011;71254;53.010;6.508;2024-02-23T04:14:19;10.10;;;1.83;;
76332;SDS011;71254;53.010;6.508;2024-02-23T04:16:45;4.78;;;1.50;;
76332;SDS011;71254;53.010;6.508;2024-02-23T04:19:11;6.13;;;1.65;;
76332;SDS011;71254;53.010;6.508;2024-02-23T04:21:36;4.65;;;2.03;;
76332;SDS011;71254;53.010;6.508;2024-02-23T04:24:02;7.38;;;1.80;;
76332;SDS011;71254;53.010;6.508;2024-02-23T04:26:27;9.48;;;1.88;;
76332;SDS011;71254;53.010;6.508;2024-02-23T04:28:55;8.57;;;1.98;;
76332;SDS011;71254;53.010;6.508;2024-02-23T04:31:21;7.03;;;1.52;;
76332;SDS011;71254;53.010;6.508;2024-02-23T04:33:50;7.18;;;1.92;;
76332;SDS011;71254;53.010;6.508;2024-02-23T04:36:18;5.10;;;1.73;;
76332;SDS011;71254;53.010;6.508;2024-02-23T04:38:47;8.32;;;2.35;;
76332;SDS011;71254;53.010;6.508;2024-02-23T04:41:12;7.95;;;1.95;;
76332;SDS011;71254;53.010;6.508;2024-02-23T04:43:38;7.50;;;2.65;;
76332;SDS011;71254;53.010;6.508;2024-02-23T04:46:04;5.57;;;2.03;;
76332;SDS011;71254;53.010;6.508;2024-02-23T04:48:30;7.35;;;2.08;;
76332;SDS011;71254;53.010;6.508;2024-02-23T04:51:03;4.72;;;1.60;;
76332;SDS011;71254;53.010;6.508;2024-02-23T04:53:29;5.70;;;2.10;;
76332;SDS011;71254;53.010;6.508;2024-02-23T04:55:54;7.88;;;1.75;;
76332;SDS011;71254;53.010;6.508;2024-02-23T04:58:22;7.13;;;2.15;;
76332;SDS011;71254;53.010;6.508;2024-02-23T05:00:51;6.95;;;1.77;;
76332;SDS011;71254;53.010;6.508;2024-02-23T05:03:16;6.00;;;1.95;;
76332;SDS011;71254;53.010;6.508;2024-02-23T05:05:42;6.07;;;2.05;;
76332;SDS011;71254;53.010;6.508;2024-02-23T05:08:07;7.47;;;2.28;;
76332;SDS011;71254;53.010;6.508;2024-02-23T05:10:33;6.53;;;2.53;;
76332;SDS011;71254;53.010;6.508;2024-02-23T05:12:59;4.95;;;2.45;;
76332;SDS011;71254;53.010;6.508;2024-02-23T05:15:25;11.55;;;2.72;;
76332;SDS011;71254;53.010;6.508;2024-02-23T05:17:50;9.23;;;2.70;;
76332;SDS011;71254;53.010;6.508;2024-02-23T05:20:22;4.43;;;2.30;;
76332;SDS011;71254;53.010;6.508;2024-02-23T05:22:48;7.65;;;2.80;;
76332;SDS011;71254;53.010;6.508;2024-02-23T05:25:13;6.00;;;2.67;;
76332;SDS011;71254;53.010;6.508;2024-02-23T05:27:42;10.65;;;3.70;;
76332;SDS011;71254;53.010;6.508;2024-02-23T05:30:08;8.93;;;4.28;;
76332;SDS011;71254;53.010;6.508;2024-02-23T05:32:34;10.23;;;3.65;;
76332;SDS011;71254;53.010;6.508;2024-02-23T05:35:00;8.82;;;4.22;;
76332;SDS011;71254;53.010;6.508;2024-02-23T05:37:26;10.13;;;5.00;;
76332;SDS011;71254;53.010;6.508;2024-02-23T05:39:55;12.50;;;5.85;;
76332;SDS011;71254;53.010;6.508;2024-02-23T05:42:20;9.70;;;5.60;;
76332;SDS011;71254;53.010;6.508;2024-02-23T05:44:49;12.45;;;6.50;;
76332;SDS011;71254;53.010;6.508;2024-02-23T05:47:15;14.27;;;7.68;;
76332;SDS011;71254;53.010;6.508;2024-02-23T05:49:41;13.30;;;7.93;;
76332;SDS011;71254;53.010;6.508;2024-02-23T05:52:06;14.10;;;8.32;;
76332;SDS011;71254;53.010;6.508;2024-02-23T05:54:32;13.65;;;7.97;;
76332;SDS011;71254;53.010;6.508;2024-02-23T05:56:57;12.48;;;7.68;;
76332;SDS011;71254;53.010;6.508;2024-02-23T05:59:23;17.27;;;8.68;;
76332;SDS011;71254;53.010;6.508;2024-02-23T06:01:52;17.65;;;9.05;;
76332;SDS011;71254;53.010;6.508;2024-02-23T06:04:21;12.13;;;8.07;;
76332;SDS011;71254;53.010;6.508;2024-02-23T06:06:48;14.50;;;7.65;;
76332;SDS011;71254;53.010;6.508;2024-02-23T06:09:13;15.90;;;8.43;;
76332;SDS011;71254;53.010;6.508;2024-02-23T06:11:39;15.60;;;7.35;;
76332;SDS011;71254;53.010;6.508;2024-02-23T06:14:04;15.25;;;7.28;;
76332;SDS011;71254;53.010;6.508;2024-02-23T06:16:30;16.73;;;8.25;;
76332;SDS011;71254;53.010;6.508;2024-02-23T06:18:56;13.68;;;6.97;;
76332;SDS011;71254;53.010;6.508;2024-02-23T06:21:21;13.15;;;7.68;;
76332;SDS011;71254;53.010;6.508;2024-02-23T06:23:47;13.35;;;7.07;;
76332;SDS011;71254;53.010;6.508;2024-02-23T06:26:12;16.60;;;8.10;;
76332;SDS011;71254;53.010;6.508;2024-02-23T06:28:38;11.55;;;6.85;;
76332;SDS011;71254;53.010;6.508;2024-02-23T06:31:07;15.18;;;7.50;;
76332;SDS011;71254;53.010;6.508;2024-02-23T06:33:34;16.17;;;7.40;;
76332;SDS011;71254;53.010;6.508;2024-02-23T06:36:00;13.00;;;6.38;;
76332;SDS011;71254;53.010;6.508;2024-02-23T06:38:33;16.30;;;6.82;;
76332;SDS011;71254;53.010;6.508;2024-02-23T06:40:59;16.13;;;7.55;;
76332;SDS011;71254;53.010;6.508;2024-02-23T06:43:25;12.35;;;7.25;;
76332;SDS011;71254;53.010;6.508;2024-02-23T06:45:50;12.82;;;7.35;;
76332;SDS011;71254;53.010;6.508;2024-02-23T06:48:16;15.13;;;6.97;;
76332;SDS011;71254;53.010;6.508;2024-02-23T06:50:42;17.73;;;7.10;;
76332;SDS011;71254;53.010;6.508;2024-02-23T06:53:07;16.95;;;9.00;;
76332;SDS011;71254;53.010;6.508;2024-02-23T06:55:36;15.00;;;7.28;;
76332;SDS011;71254;53.010;6.508;2024-02-23T06:58:02;14.25;;;7.03;;
76332;SDS011;71254;53.010;6.508;2024-02-23T07:00:30;12.40;;;6.72;;
76332;SDS011;71254;53.010;6.508;2024-02-23T07:02:55;17.48;;;7.47;;
76332;SDS011;71254;53.010;6.508;2024-02-23T07:05:26;12.73;;;7.18;;
76332;SDS011;71254;53.010;6.508;2024-02-23T07:07:52;15.43;;;7.13;;
76332;SDS011;71254;53.010;6.508;2024-02-23T07:10:17;16.73;;;7.28;;
76332;SDS011;71254;53.010;6.508;2024-02-23T07:12:47;14.82;;;6.80;;
76332;SDS011;71254;53.010;6.508;2024-02-23T07:15:13;10.30;;;6.05;;
76332;SDS011;71254;53.010;6.508;2024-02-23T07:17:39;13.32;;;6.40;;
76332;SDS011;71254;53.010;6.508;2024-02-23T07:20:05;17.60;;;7.13;;
76332;SDS011;71254;53.010;6.508;2024-02-23T07:22:34;11.70;;;6.38;;
76332;SDS011;71254;53.010;6.508;2024-02-23T07:25:01;15.05;;;9.05;;
76332;SDS011;71254;53.010;6.508;2024-02-23T07:27:29;15.68;;;6.60;;
76332;SDS011;71254;53.010;6.508;2024-02-23T07:29:54;14.45;;;6.00;;
76332;SDS011;71254;53.010;6.508;2024-02-23T07:32:20;15.98;;;7.50;;
76332;SDS011;71254;53.010;6.508;2024-02-23T07:34:45;8.60;;;5.80;;
76332;SDS011;71254;53.010;6.508;2024-02-23T07:37:11;13.30;;;6.07;;
76332;SDS011;71254;53.010;6.508;2024-02-23T07:39:37;12.70;;;6.47;;
76332;SDS011;71254;53.010;6.508;2024-02-23T07:42:03;10.68;;;5.85;;
76332;SDS011;71254;53.010;6.508;2024-02-23T07:44:30;14.02;;;6.18;;
76332;SDS011;71254;53.010;6.508;2024-02-23T07:46:55;10.57;;;6.68;;
76332;SDS011;71254;53.010;6.508;2024-02-23T07:49:26;9.43;;;5.53;;
76332;SDS011;71254;53.010;6.508;2024-02-23T07:51:53;9.82;;;5.22;;
76332;SDS011;71254;53.010;6.508;2024-02-23T07:54:19;10.43;;;5.40;;
76332;SDS011;71254;53.010;6.508;2024-02-23T07:56:47;8.38;;;5.43;;
76332;SDS011;71254;53.010;6.508;2024-02-23T07:59:13;7.55;;;4.60;;
76332;SDS011;71254;53.010;6.508;2024-02-23T08:01:45;5.70;;;3.90;;
76332;SDS011;71254;53.010;6.508;2024-02-23T08:04:11;9.15;;;4.20;;
76332;SDS011;71254;53.010;6.508;2024-02-23T08:06:38;6.93;;;4.57;;
76332;SDS011;71254;53.010;6.508;2024-02-23T08:09:07;9.65;;;4.15;;
76332;SDS011;71254;53.010;6.508;2024-02-23T08:11:33;7.18;;;3.53;;
76332;SDS011;71254;53.010;6.508;2024-02-23T08:13:58;9.07;;;3.72;;
76332;SDS011;71254;53.010;6.508;2024-02-23T08:16:24;6.05;;;3.30;;
76332;SDS011;71254;53.010;6.508;2024-02-23T08:18:50;5.35;;;3.28;;
76332;SDS011;71254;53.010;6.508;2024-02-23T08:21:15;6.60;;;3.10;;
76332;SDS011;71254;53.010;6.508;2024-02-23T08:23:41;7.88;;;3.28;;
76332;SDS011;71254;53.010;6.508;2024-02-23T08:26:06;5.93;;;2.90;;
76332;SDS011;71254;53.010;6.508;2024-02-23T08:28:32;6.50;;;2.78;;
76332;SDS011;71254;53.010;6.508;2024-02-23T08:30:58;6.05;;;2.65;;
76332;SDS011;71254;53.010;6.508;2024-02-23T08:33:23;3.78;;;2.53;;
76332;SDS011;71254;53.010;6.508;2024-02-23T08:35:52;5.28;;;2.60;;
76332;SDS011;71254;53.010;6.508;2024-02-23T08:38:20;6.60;;;2.17;;
76332;SDS011;71254;53.010;6.508;2024-02-23T08:40:46;4.75;;;2.40;;
76332;SDS011;71254;53.010;6.508;2024-02-23T08:43:13;5.82;;;2.42;;
76332;SDS011;71254;53.010;6.508;2024-02-23T08:45:39;5.20;;;2.85;;
76332;SDS011;71254;53.010;6.508;2024-02-23T08:48:07;4.93;;;2.38;;
76332;SDS011;71254;53.010;6.508;2024-02-23T08:50:36;4.40;;;2.17;;
76332;SDS011;71254;53.010;6.508;2024-02-23T08:53:03;8.30;;;2.25;;
76332;SDS011;71254;53.010;6.508;2024-02-23T08:55:29;6.90;;;2.60;;
76332;SDS011;71254;53.010;6.508;2024-02-23T08:57:55;6.32;;;2.50;;
76332;SDS011;71254;53.010;6.508;2024-02-23T09:00:21;11.57;;;5.65;;
76332;SDS011;71254;53.010;6.508;2024-02-23T09:02:47;5.28;;;2.53;;
76332;SDS011;71254;53.010;6.508;2024-02-23T09:05:15;9.90;;;3.03;;
76332;SDS011;71254;53.010;6.508;2024-02-23T09:07:40;6.72;;;2.60;;
76332;SDS011;71254;53.010;6.508;2024-02-23T09:10:06;6.55;;;2.40;;
76332;SDS011;71254;53.010;6.508;2024-02-23T09:12:43;8.60;;;2.70;;
76332;SDS011;71254;53.010;6.508;2024-02-23T09:15:09;5.05;;;2.55;;
76332;SDS011;71254;53.010;6.508;2024-02-23T09:17:35;8.27;;;2.67;;
76332;SDS011;71254;53.010;6.508;2024-02-23T09:20:00;7.35;;;2.35;;
76332;SDS011;71254;53.010;6.508;2024-02-23T09:22:29;6.90;;;2.35;;
76332;SDS011;71254;53.010;6.508;2024-02-23T09:24:54;4.68;;;2.33;;
76332;SDS011;71254;53.010;6.508;2024-02-23T09:27:21;5.57;;;2.22;;
76332;SDS011;71254;53.010;6.508;2024-02-23T09:29:53;8.68;;;2.20;;
76332;SDS011;71254;53.010;6.508;2024-02-23T09:32:18;2.78;;;1.52;;
76332;SDS011;71254;53.010;6.508;2024-02-23T09:34:44;5.07;;;1.90;;
76332;SDS011;71254;53.010;6.508;2024-02-23T09:37:09;3.97;;;1.73;;
76332;SDS011;71254;53.010;6.508;2024-02-23T09:39:35;5.72;;;2.15;;
76332;SDS011;71254;53.010;6.508;2024-02-23T09:42:04;6.38;;;1.77;;
76332;SDS011;71254;53.010;6.508;2024-02-23T09:44:34;6.80;;;2.03;;
76332;SDS011;71254;53.010;6.508;2024-02-23T09:47:04;5.45;;;1.58;;
76332;SDS011;71254;53.010;6.508;2024-02-23T09:49:39;6.00;;;1.98;;
76332;SDS011;71254;53.010;6.508;2024-02-23T09:52:08;4.28;;;1.63;;
76332;SDS011;71254;53.010;6.508;2024-02-23T09:54:37;3.17;;;1.70;;
76332;SDS011;71254;53.010;6.508;2024-02-23T09:57:06;6.55;;;2.08;;
76332;SDS011;71254;53.010;6.508;2024-02-23T09:59:34;6.90;;;2.33;;
76332;SDS011;71254;53.010;6.508;2024-02-23T10:02:01;4.95;;;1.58;;
76332;SDS011;71254;53.010;6.508;2024-02-23T10:04:29;3.38;;;1.52;;
76332;SDS011;71254;53.010;6.508;2024-02-23T10:06:56;4.38;;;1.42;;
76332;SDS011;71254;53.010;6.508;2024-02-23T10:09:22;4.55;;;1.52;;
76332;SDS011;71254;53.010;6.508;2024-02-23T10:11:56;5.20;;;1.95;;
76332;SDS011;71254;53.010;6.508;2024-02-23T10:14:22;7.28;;;1.52;;
76332;SDS011;71254;53.010;6.508;2024-02-23T10:16:48;6.35;;;1.67;;
76332;SDS011;71254;53.010;6.508;2024-02-23T10:19:18;3.17;;;1.38;;
76332;SDS011;71254;53.010;6.508;2024-02-23T10:21:45;2.70;;;1.65;;
76332;SDS011;71254;53.010;6.508;2024-02-23T10:24:15;5.13;;;1.73;;
76332;SDS011;71254;53.010;6.508;2024-02-23T10:26:45;5.22;;;1.63;;
76332;SDS011;71254;53.010;6.508;2024-02-23T10:29:10;4.05;;;1.40;;
76332;SDS011;71254;53.010;6.508;2024-02-23T10:31:39;4.07;;;1.58;;
76332;SDS011;71254;53.010;6.508;2024-02-23T10:34:10;5.28;;;1.63;;
76332;SDS011;71254;53.010;6.508;2024-02-23T10:36:42;2.25;;;1.30;;
76332;SDS011;71254;53.010;6.508;2024-02-23T10:39:08;4.00;;;1.95;;
76332;SDS011;71254;53.010;6.508;2024-02-23T10:41:56;2.22;;;1.48;;
76332;SDS011;71254;53.010;6.508;2024-02-23T10:44:26;4.40;;;1.38;;
76332;SDS011;71254;53.010;6.508;2024-02-23T10:47:02;3.92;;;1.80;;
76332;SDS011;71254;53.010;6.508;2024-02-23T10:49:29;6.47;;;1.90;;
76332;SDS011;71254;53.010;6.508;2024-02-23T10:51:55;6.00;;;1.42;;
76332;SDS011;71254;53.010;6.508;2024-02-23T10:54:22;3.17;;;1.65;;
76332;SDS011;71254;53.010;6.508;2024-02-23T10:56:49;4.50;;;1.55;;
76332;SDS011;71254;53.010;6.508;2024-02-23T10:59:15;3.97;;;1.40;;
76332;SDS011;71254;53.010;6.508;2024-02-23T11:01:47;6.97;;;2.10;;
76332;SDS011;71254;53.010;6.508;2024-02-23T11:04:19;7.60;;;2.03;;
76332;SDS011;71254;53.010;6.508;2024-02-23T11:06:49;5.72;;;1.25;;
76332;SDS011;71254;53.010;6.508;2024-02-23T11:09:16;5.22;;;1.75;;
76332;SDS011;71254;53.010;6.508;2024-02-23T11:11:55;3.92;;;1.25;;
76332;SDS011;71254;53.010;6.508;2024-02-23T11:17:03;4.80;;;1.40;;
76332;SDS011;71254;53.010;6.508;2024-02-23T11:19:32;3.72;;;1.42;;
76332;SDS011;71254;53.010;6.508;2024-02-23T11:21:59;3.85;;;1.58;;
76332;SDS011;71254;53.010;6.508;2024-02-23T11:24:34;5.95;;;1.70;;
76332;SDS011;71254;53.010;6.508;2024-02-23T11:27:12;4.45;;;1.40;;
76332;SDS011;71254;53.010;6.508;2024-02-23T11:29:39;4.78;;;1.52;;
76332;SDS011;71254;53.010;6.508;2024-02-23T11:32:17;5.40;;;1.73;;
76332;SDS011;71254;53.010;6.508;2024-02-23T11:34:59;5.90;;;1.65;;
76332;SDS011;71254;53.010;6.508;2024-02-23T11:37:30;4.75;;;1.40;;
76332;SDS011;71254;53.010;6.508;2024-02-23T11:39:56;6.35;;;1.88;;
76332;SDS011;71254;53.010;6.508;2024-02-23T11:42:25;4.55;;;1.52;;
76332;SDS011;71254;53.010;6.508;2024-02-23T11:44:55;4.88;;;1.30;;
76332;SDS011;71254;53.010;6.508;2024-02-23T11:47:28;2.92;;;1.38;;
76332;SDS011;71254;53.010;6.508;2024-02-23T11:49:57;4.07;;;1.38;;
76332;SDS011;71254;53.010;6.508;2024-02-23T11:52:25;2.08;;;1.40;;
76332;SDS011;71254;53.010;6.508;2024-02-23T11:54:51;6.68;;;1.83;;
76332;SDS011;71254;53.010;6.508;2024-02-23T11:57:21;4.72;;;1.45;;
76332;SDS011;71254;53.010;6.508;2024-02-23T11:59:50;2.42;;;1.48;;
76332;SDS011;71254;53.010;6.508;2024-02-23T12:02:19;4.55;;;1.42;;
76332;SDS011;71254;53.010;6.508;2024-02-23T12:04:44;3.70;;;1.60;;
76332;SDS011;71254;53.010;6.508;2024-02-23T12:07:10;3.38;;;1.80;;
76332;SDS011;71254;53.010;6.508;2024-02-23T12:09:40;3.10;;;1.90;;
76332;SDS011;71254;53.010;6.508;2024-02-23T12:12:06;3.92;;;1.55;;
76332;SDS011;71254;53.010;6.508;2024-02-23T12:14:34;3.75;;;1.42;;
76332;SDS011;71254;53.010;6.508;2024-02-23T12:17:01;4.43;;;1.40;;
76332;SDS011;71254;53.010;6.508;2024-02-23T12:19:29;4.85;;;1.98;;
76332;SDS011;71254;53.010;6.508;2024-02-23T12:22:00;3.72;;;1.40;;
76332;SDS011;71254;53.010;6.508;2024-02-23T12:24:26;5.40;;;1.58;;
76332;SDS011;71254;53.010;6.508;2024-02-23T12:26:55;4.95;;;1.80;;
76332;SDS011;71254;53.010;6.508;2024-02-23T12:29:21;3.08;;;1.50;;
76332;SDS011;71254;53.010;6.508;2024-02-23T12:31:50;3.72;;;1.83;;
76332;SDS011;71254;53.010;6.508;2024-02-23T12:34:18;2.30;;;1.35;;
76332;SDS011;71254;53.010;6.508;2024-02-23T12:36:45;4.60;;;1.58;;
76332;SDS011;71254;53.010;6.508;2024-02-23T12:39:11;14.07;;;2.15;;
76332;SDS011;71254;53.010;6.508;2024-02-23T12:41:40;2.97;;;1.27;;
76332;SDS011;71254;53.010;6.508;2024-02-23T12:44:05;3.70;;;1.50;;
76332;SDS011;71254;53.010;6.508;2024-02-23T12:46:31;4.85;;;1.48;;
76332;SDS011;71254;53.010;6.508;2024-02-23T12:48:57;2.90;;;1.38;;
76332;SDS011;71254;53.010;6.508;2024-02-23T12:51:25;3.95;;;2.08;;
76332;SDS011;71254;53.010;6.508;2024-02-23T12:53:52;5.63;;;2.58;;
76332;SDS011;71254;53.010;6.508;2024-02-23T12:56:21;4.05;;;2.03;;
76332;SDS011;71254;53.010;6.508;2024-02-23T12:58:49;2.70;;;1.52;;
76332;SDS011;71254;53.010;6.508;2024-02-23T13:01:19;3.03;;;1.40;;
76332;SDS011;71254;53.010;6.508;2024-02-23T13:03:53;6.45;;;1.77;;
76332;SDS011;71254;53.010;6.508;2024-02-23T13:06:21;5.55;;;1.75;;
76332;SDS011;71254;53.010;6.508;2024-02-23T13:08:47;3.40;;;1.38;;
76332;SDS011;71254;53.010;6.508;2024-02-23T13:11:13;3.10;;;1.80;;
76332;SDS011;71254;53.010;6.508;2024-02-23T13:13:39;5.32;;;1.77;;
76332;SDS011;71254;53.010;6.508;2024-02-23T13:16:04;2.83;;;1.75;;
76332;SDS011;71254;53.010;6.508;2024-02-23T13:18:30;4.78;;;1.75;;
76332;SDS011;71254;53.010;6.508;2024-02-23T13:20:56;5.60;;;2.20;;
76332;SDS011;71254;53.010;6.508;2024-02-23T13:23:21;4.97;;;1.50;;
76332;SDS011;71254;53.010;6.508;2024-02-23T13:25:50;2.78;;;1.77;;
76332;SDS011;71254;53.010;6.508;2024-02-23T13:28:18;3.95;;;1.90;;
76332;SDS011;71254;53.010;6.508;2024-02-23T13:30:46;2.58;;;1.67;;
76332;SDS011;71254;53.010;6.508;2024-02-23T13:33:12;4.00;;;1.60;;
76332;SDS011;71254;53.010;6.508;2024-02-23T13:35:39;2.83;;;1.60;;
76332;SDS011;71254;53.010;6.508;2024-02-23T13:38:08;4.50;;;1.65;;
76332;SDS011;71254;53.010;6.508;2024-02-23T13:40:40;3.03;;;1.85;;
76332;SDS011;71254;53.010;6.508;2024-02-23T13:43:14;3.28;;;1.92;;
76332;SDS011;71254;53.010;6.508;2024-02-23T13:45:49;4.85;;;2.22;;
76332;SDS011;71254;53.010;6.508;2024-02-23T13:48:19;4.90;;;2.10;;
76332;SDS011;71254;53.010;6.508;2024-02-23T13:50:48;2.70;;;1.90;;
76332;SDS011;71254;53.010;6.508;2024-02-23T13:53:16;4.57;;;2.22;;
76332;SDS011;71254;53.010;6.508;2024-02-23T13:55:42;5.03;;;2.05;;
76332;SDS011;71254;53.010;6.508;2024-02-23T13:58:09;3.83;;;1.85;;
76332;SDS011;71254;53.010;6.508;2024-02-23T14:00:41;6.63;;;2.40;;
76332;SDS011;71254;53.010;6.508;2024-02-23T14:03:16;7.18;;;2.13;;
76332;SDS011;71254;53.010;6.508;2024-02-23T14:05:45;5.80;;;2.63;;
76332;SDS011;71254;53.010;6.508;2024-02-23T14:08:14;6.53;;;3.17;;
76332;SDS011;71254;53.010;6.508;2024-02-23T14:10:42;4.10;;;2.45;;
76332;SDS011;71254;53.010;6.508;2024-02-23T14:13:08;4.55;;;2.10;;
76332;SDS011;71254;53.010;6.508;2024-02-23T14:15:34;3.03;;;2.33;;
76332;SDS011;71254;53.010;6.508;2024-02-23T14:18:02;4.80;;;2.22;;
76332;SDS011;71254;53.010;6.508;2024-02-23T14:20:28;5.85;;;2.75;;
76332;SDS011;71254;53.010;6.508;2024-02-23T14:22:53;6.43;;;2.53;;
76332;SDS011;71254;53.010;6.508;2024-02-23T14:25:19;2.88;;;2.53;;
76332;SDS011;71254;53.010;6.508;2024-02-23T14:27:45;3.95;;;2.35;;
76332;SDS011;71254;53.010;6.508;2024-02-23T14:30:10;4.20;;;2.40;;
76332;SDS011;71254;53.010;6.508;2024-02-23T14:32:36;3.83;;;2.10;;
76332;SDS011;71254;53.010;6.508;2024-02-23T14:35:02;5.53;;;2.25;;
76332;SDS011;71254;53.010;6.508;2024-02-23T14:37:29;6.47;;;2.47;;
76332;SDS011;71254;53.010;6.508;2024-02-23T14:39:54;5.80;;;2.65;;
76332;SDS011;71254;53.010;6.508;2024-02-23T14:42:20;6.45;;;2.60;;
76332;SDS011;71254;53.010;6.508;2024-02-23T14:44:45;4.68;;;2.35;;
76332;SDS011;71254;53.010;6.508;2024-02-23T14:47:11;4.20;;;2.75;;
76332;SDS011;71254;53.010;6.508;2024-02-23T14:49:44;6.35;;;2.50;;